Time;durP1;ratioP1;P1;durP2;ratioP2;P2;SDS_P1;SDS_P2;PMS_P1;PMS_P2;Temp;Humidity;BMP_temperature;BMP_pressure;BME280_temperature;BME280_humidity;BME280_pressure;Samples;Min_cycle;Max_cycle;Signal;HPM_P1;HPM_P2
2022/01/07 00:00:50;;;;;;;19.80;6.25;;;4.00;99.90;;;;;;4996901;28;20045;-86
2022/01/07 00:03:16;;;;;;;16.98;5.72;;;4.00;99.90;;;;;;4996949;28;20038;-86
2022/01/07 00:05:42;;;;;;;16.90;5.97;;;4.00;99.90;;;;;;4997038;28;20037;-86
2022/01/07 00:08:08;;;;;;;13.90;6.03;;;4.10;99.90;;;;;;5012496;28;20048;-87
2022/01/07 00:10:33;;;;;;;14.45;6.05;;;4.00;99.90;;;;;;4996522;28;20042;-86
2022/01/07 00:12:59;;;;;;;18.60;6.55;;;4.00;99.90;;;;;;4996534;28;20137;-87
2022/01/07 00:15:25;;;;;;;15.77;5.53;;;4.10;99.90;;;;;;4996431;28;20034;-87
2022/01/07 00:17:50;;;;;;;15.73;5.88;;;4.10;99.90;;;;;;5012411;28;20065;-86
2022/01/07 00:20:17;;;;;;;16.77;6.70;;;4.10;99.90;;;;;;4996556;28;20125;-87
2022/01/07 00:22:44;;;;;;;16.88;5.60;;;4.10;99.90;;;;;;5013130;28;20041;-87
2022/01/07 00:25:11;;;;;;;14.65;5.75;;;4.10;99.90;;;;;;5013566;28;20080;-88
2022/01/07 00:27:37;;;;;;;17.05;5.43;;;4.10;99.90;;;;;;5013293;28;20507;-87
2022/01/07 00:30:05;;;;;;;13.75;5.03;;;4.10;99.90;;;;;;4997823;28;20104;-87
2022/01/07 00:32:31;;;;;;;18.50;5.63;;;4.10;99.90;;;;;;5013836;28;20176;-87
2022/01/07 00:34:56;;;;;;;17.58;5.55;;;4.10;99.90;;;;;;4997572;28;20563;-87
2022/01/07 00:37:22;;;;;;;13.88;5.00;;;4.10;99.90;;;;;;5008225;28;20035;-87
2022/01/07 00:39:48;;;;;;;20.80;5.25;;;4.10;99.90;;;;;;4994017;28;20046;-87
2022/01/07 00:42:14;;;;;;;16.58;5.28;;;4.10;99.90;;;;;;4990548;28;20400;-86
2022/01/07 00:44:39;;;;;;;15.43;5.10;;;4.00;99.90;;;;;;4994204;28;20492;-86
2022/01/07 00:47:05;;;;;;;12.88;5.38;;;4.00;99.90;;;;;;5006201;28;20483;-86
2022/01/07 00:49:31;;;;;;;14.70;5.30;;;4.00;99.90;;;;;;5013491;28;20119;-87
2022/01/07 00:51:59;;;;;;;18.23;5.32;;;3.90;99.90;;;;;;5028847;28;20038;-87
2022/01/07 00:54:25;;;;;;;14.30;5.32;;;3.90;99.90;;;;;;5013468;28;20042;-86
2022/01/07 00:56:50;;;;;;;13.70;4.72;;;3.90;99.90;;;;;;5025534;28;20491;-87
2022/01/07 00:59:16;;;;;;;17.92;5.22;;;3.90;99.90;;;;;;5013562;28;20100;-87
2022/01/07 01:01:41;;;;;;;14.85;5.30;;;3.80;99.90;;;;;;4997445;28;20048;-87
2022/01/07 01:04:07;;;;;;;17.33;5.90;;;3.80;99.90;;;;;;4996802;28;20522;-87
2022/01/07 01:06:33;;;;;;;13.55;5.15;;;3.80;99.90;;;;;;4993576;28;20097;-87
2022/01/07 01:08:59;;;;;;;12.00;4.80;;;3.80;99.90;;;;;;4993787;28;20053;-87
2022/01/07 01:11:24;;;;;;;16.73;5.85;;;3.80;99.90;;;;;;4993395;28;20176;-87
2022/01/07 01:13:50;;;;;;;14.68;5.30;;;3.80;99.90;;;;;;4993378;28;20045;-87
2022/01/07 01:16:16;;;;;;;13.95;5.78;;;3.70;99.90;;;;;;4977360;28;20057;-87
2022/01/07 01:18:41;;;;;;;15.73;5.53;;;3.70;99.90;;;;;;4977493;28;20034;-87
2022/01/07 01:21:07;;;;;;;15.82;6.15;;;3.70;99.90;;;;;;4977286;28;20129;-87
2022/01/07 01:23:32;;;;;;;20.42;5.78;;;3.70;99.90;;;;;;4977124;28;20035;-87
2022/01/07 01:25:58;;;;;;;17.00;5.20;;;3.70;99.90;;;;;;5009730;28;20153;-88
2022/01/07 01:28:24;;;;;;;15.18;5.65;;;3.60;99.90;;;;;;4988421;28;20598;-87
2022/01/07 01:30:49;;;;;;;19.52;5.50;;;3.60;99.90;;;;;;5029427;28;20038;-87
2022/01/07 01:33:15;;;;;;;16.63;5.90;;;3.60;99.90;;;;;;4995947;28;20100;-88
2022/01/07 01:35:41;;;;;;;15.27;6.30;;;3.50;99.90;;;;;;5010014;28;20033;-87
2022/01/07 01:38:07;;;;;;;14.93;6.25;;;3.50;99.90;;;;;;4976883;28;20420;-87
2022/01/07 01:40:33;;;;;;;17.73;6.15;;;3.50;99.90;;;;;;4976921;28;20046;-87
2022/01/07 01:43:01;;;;;;;15.27;5.65;;;3.50;99.90;;;;;;4993021;28;20057;-86
2022/01/07 01:45:27;;;;;;;12.65;5.65;;;3.50;99.90;;;;;;4993126;28;20500;-87
2022/01/07 01:47:55;;;;;;;14.48;5.63;;;3.40;99.90;;;;;;4993413;28;20042;-87
2022/01/07 01:50:22;;;;;;;12.50;5.43;;;3.40;99.90;;;;;;4992910;28;20046;-87
2022/01/07 01:52:53;;;;;;;19.40;6.10;;;3.40;99.90;;;;;;4993058;28;20048;-87
2022/01/07 01:55:20;;;;;;;16.30;6.38;;;3.40;99.90;;;;;;4976243;28;20069;-87
2022/01/07 01:57:46;;;;;;;13.10;5.60;;;3.40;99.90;;;;;;4993455;28;20504;-87
2022/01/07 02:00:12;;;;;;;16.20;6.22;;;3.40;99.90;;;;;;4976641;28;20129;-87
2022/01/07 02:02:38;;;;;;;13.65;5.97;;;3.30;99.90;;;;;;4976363;28;20054;-87
2022/01/07 02:05:05;;;;;;;14.82;6.63;;;3.30;99.90;;;;;;4976626;28;20046;-87
2022/01/07 02:07:35;;;;;;;17.02;6.57;;;3.30;99.90;;;;;;4985819;28;20069;-87
2022/01/07 02:10:05;;;;;;;14.60;7.18;;;3.30;99.90;;;;;;4995507;28;20042;-87
2022/01/07 02:12:30;;;;;;;19.70;8.27;;;3.30;99.90;;;;;;5029064;28;20042;-87
2022/01/07 02:14:56;;;;;;;15.93;7.00;;;3.20;99.90;;;;;;5028618;28;20117;-87
2022/01/07 02:17:23;;;;;;;18.90;6.78;;;3.20;99.90;;;;;;4990385;28;20550;-87
2022/01/07 02:19:49;;;;;;;15.23;7.00;;;3.20;99.90;;;;;;4975338;28;20173;-87
2022/01/07 02:22:19;;;;;;;17.52;7.65;;;3.20;99.90;;;;;;4976272;28;20042;-87
2022/01/07 02:24:46;;;;;;;14.85;7.03;;;3.20;99.90;;;;;;4992085;28;20054;-87
2022/01/07 02:27:13;;;;;;;15.82;7.15;;;3.20;99.90;;;;;;4993010;28;20077;-87
2022/01/07 02:29:39;;;;;;;15.77;7.10;;;3.20;99.90;;;;;;5011878;28;20241;-87
2022/01/07 02:32:05;;;;;;;16.20;7.10;;;3.20;99.90;;;;;;5011512;28;20128;-87
2022/01/07 02:34:31;;;;;;;18.70;7.55;;;3.20;99.90;;;;;;4993592;28;20530;-87
2022/01/07 02:36:57;;;;;;;18.00;8.77;;;3.20;99.90;;;;;;5028075;28;20077;-87
2022/01/07 02:39:22;;;;;;;17.85;7.80;;;3.20;99.90;;;;;;4979403;28;20049;-87
2022/01/07 02:41:48;;;;;;;14.00;7.72;;;3.20;99.90;;;;;;4975886;28;20265;-87
2022/01/07 02:44:13;;;;;;;15.98;7.72;;;3.20;99.90;;;;;;4991807;28;20133;-87
2022/01/07 02:46:39;;;;;;;13.35;8.10;;;3.10;99.90;;;;;;4975466;28;20042;-87
2022/01/07 02:49:13;;;;;;;16.23;8.85;;;3.10;99.90;;;;;;4985932;28;20041;-87
2022/01/07 02:51:39;;;;;;;17.63;9.73;;;3.10;99.90;;;;;;4995036;28;20049;-87
2022/01/07 02:54:07;;;;;;;18.95;8.32;;;3.00;99.90;;;;;;4994804;28;20125;-87
2022/01/07 02:56:33;;;;;;;17.58;8.15;;;3.10;99.90;;;;;;5011401;28;20064;-87
2022/01/07 02:58:59;;;;;;;18.90;8.75;;;3.10;99.90;;;;;;5023814;28;20046;-87
2022/01/07 03:01:24;;;;;;;20.63;9.45;;;3.00;99.90;;;;;;5011041;28;20103;-87
2022/01/07 03:03:50;;;;;;;19.02;10.00;;;3.10;99.90;;;;;;5010968;28;20042;-87
2022/01/07 03:06:16;;;;;;;17.52;8.60;;;3.10;99.90;;;;;;4994841;28;20049;-87
2022/01/07 03:08:46;;;;;;;18.77;9.32;;;3.10;99.90;;;;;;5008849;28;20553;-87
2022/01/07 03:11:12;;;;;;;19.13;8.68;;;3.00;99.90;;;;;;4975260;28;20042;-87
2022/01/07 03:13:37;;;;;;;14.93;8.60;;;3.00;99.90;;;;;;4981731;28;20041;-87
2022/01/07 03:16:03;;;;;;;16.98;8.50;;;3.00;99.90;;;;;;5010342;28;20495;-87
2022/01/07 03:18:29;;;;;;;17.98;8.25;;;3.00;99.90;;;;;;5009657;28;20038;-87
2022/01/07 03:20:54;;;;;;;15.45;8.20;;;3.00;99.90;;;;;;5009127;28;20128;-87
2022/01/07 03:23:20;;;;;;;19.08;9.65;;;3.00;99.90;;;;;;5010315;28;20127;-87
2022/01/07 03:25:46;;;;;;;18.42;8.05;;;3.10;99.90;;;;;;5010975;28;20033;-87
2022/01/07 03:28:12;;;;;;;14.88;8.27;;;3.00;99.90;;;;;;4994454;28;20037;-87
2022/01/07 03:30:38;;;;;;;15.45;8.05;;;3.00;99.90;;;;;;4981951;28;20488;-87
2022/01/07 03:33:04;;;;;;;15.88;8.77;;;3.00;99.90;;;;;;5007398;28;20038;-87
2022/01/07 03:35:30;;;;;;;15.23;8.43;;;3.00;99.90;;;;;;4974751;28;20044;-87
2022/01/07 03:37:56;;;;;;;18.33;9.23;;;3.00;99.90;;;;;;5007186;28;20034;-87
2022/01/07 03:40:21;;;;;;;17.38;9.27;;;3.00;99.90;;;;;;4991338;28;20048;-87
2022/01/07 03:42:49;;;;;;;16.67;8.88;;;3.00;99.90;;;;;;4991152;28;20042;-87
2022/01/07 03:45:16;;;;;;;17.48;8.90;;;3.00;99.90;;;;;;4990885;28;20065;-87
2022/01/07 03:47:43;;;;;;;15.18;9.07;;;3.00;99.90;;;;;;4990527;28;20038;-87
2022/01/07 03:50:11;;;;;;;20.77;10.15;;;3.00;99.90;;;;;;4976754;28;20165;-88
2022/01/07 03:52:37;;;;;;;15.43;8.73;;;3.00;99.90;;;;;;5010312;28;20499;-87
2022/01/07 03:55:06;;;;;;;16.40;9.18;;;3.00;99.90;;;;;;5010420;28;20092;-87
2022/01/07 03:57:32;;;;;;;15.38;9.27;;;3.10;99.90;;;;;;5010445;28;20048;-87
2022/01/07 03:59:57;;;;;;;18.05;9.05;;;3.10;99.90;;;;;;4994088;28;20034;-87
2022/01/07 04:02:23;;;;;;;18.50;9.25;;;3.10;99.90;;;;;;5006668;28;20038;-87
2022/01/07 04:04:48;;;;;;;17.27;9.75;;;3.10;99.90;;;;;;4974440;28;20488;-87
2022/01/07 04:07:14;;;;;;;16.88;8.13;;;3.10;99.90;;;;;;4974486;28;20042;-87
2022/01/07 04:09:40;;;;;;;15.70;9.63;;;3.10;99.90;;;;;;5007470;28;20045;-87
2022/01/07 04:12:06;;;;;;;16.63;8.45;;;3.20;99.90;;;;;;4997935;28;20722;-87
2022/01/07 04:14:32;;;;;;;15.82;8.68;;;3.10;99.90;;;;;;4974088;28;20034;-87
2022/01/07 04:16:59;;;;;;;15.85;8.25;;;3.20;99.90;;;;;;4990960;28;20404;-87
2022/01/07 04:19:25;;;;;;;14.60;8.20;;;3.20;99.90;;;;;;4990665;28;20038;-88
2022/01/07 04:21:51;;;;;;;16.88;8.63;;;3.20;99.90;;;;;;4998237;28;20056;-87
2022/01/07 04:24:17;;;;;;;15.35;8.30;;;3.20;99.90;;;;;;4993831;28;20038;-88
2022/01/07 04:26:42;;;;;;;19.30;8.45;;;3.20;99.90;;;;;;4993829;28;20037;-88
2022/01/07 04:29:09;;;;;;;15.02;8.05;;;3.20;99.90;;;;;;4993759;28;20268;-88
2022/01/07 04:31:34;;;;;;;18.02;9.63;;;3.20;99.90;;;;;;5007451;28;20117;-88
2022/01/07 04:34:00;;;;;;;17.55;8.95;;;3.30;99.90;;;;;;4990565;28;20134;-88
2022/01/07 04:36:26;;;;;;;16.33;8.60;;;3.30;99.90;;;;;;4974256;28;20078;-88
2022/01/07 04:38:51;;;;;;;16.13;7.68;;;3.30;99.90;;;;;;4974555;28;20034;-87
2022/01/07 04:41:17;;;;;;;14.43;8.88;;;3.30;99.90;;;;;;4990422;28;20042;-87
2022/01/07 04:43:43;;;;;;;15.80;8.45;;;3.30;99.90;;;;;;5010881;28;20045;-87
2022/01/07 04:46:08;;;;;;;15.88;8.18;;;3.30;99.90;;;;;;5013741;28;20048;-88
2022/01/07 04:48:34;;;;;;;17.05;8.65;;;3.30;99.90;;;;;;4997361;28;20407;-87
2022/01/07 04:50:59;;;;;;;17.95;8.77;;;3.30;99.90;;;;;;4997418;28;20076;-88
2022/01/07 04:53:26;;;;;;;15.27;7.32;;;3.20;99.90;;;;;;5009430;28;20053;-87
2022/01/07 04:55:53;;;;;;;17.60;8.73;;;3.30;99.90;;;;;;5013660;28;20036;-88
2022/01/07 04:58:19;;;;;;;17.30;8.05;;;3.30;99.90;;;;;;5013658;28;20038;-88
2022/01/07 05:00:45;;;;;;;15.40;8.23;;;3.30;99.90;;;;;;5013511;28;20044;-88
2022/01/07 05:03:12;;;;;;;15.23;7.63;;;3.30;99.90;;;;;;4996119;28;20033;-87
2022/01/07 05:05:38;;;;;;;13.98;7.82;;;3.30;99.90;;;;;;5029313;28;20073;-87
2022/01/07 05:08:05;;;;;;;16.13;7.90;;;3.30;99.90;;;;;;4996413;28;20037;-87
2022/01/07 05:10:31;;;;;;;16.65;7.07;;;3.30;99.90;;;;;;4995983;28;20475;-87
2022/01/07 05:12:57;;;;;;;14.75;8.23;;;3.30;99.90;;;;;;5008058;28;20065;-87
2022/01/07 05:15:23;;;;;;;12.68;7.07;;;3.30;99.90;;;;;;4976222;28;20042;-87
2022/01/07 05:17:49;;;;;;;12.00;6.28;;;3.30;99.90;;;;;;4976494;28;20064;-87
2022/01/07 05:20:16;;;;;;;14.18;7.95;;;3.30;99.90;;;;;;4990895;28;20090;-88
2022/01/07 05:22:43;;;;;;;12.30;7.15;;;3.30;99.90;;;;;;4992280;28;20043;-87
2022/01/07 05:25:10;;;;;;;15.82;8.07;;;3.30;99.90;;;;;;4976144;28;20287;-87
2022/01/07 05:27:37;;;;;;;14.80;7.72;;;3.30;99.90;;;;;;4992532;28;20130;-87
2022/01/07 05:30:04;;;;;;;15.77;8.15;;;3.30;99.90;;;;;;4975849;28;20411;-87
2022/01/07 05:32:30;;;;;;;13.88;7.30;;;3.20;99.90;;;;;;4992508;28;20049;-87
2022/01/07 05:34:56;;;;;;;14.38;7.00;;;3.30;99.90;;;;;;4988761;28;20033;-87
2022/01/07 05:37:21;;;;;;;14.25;7.38;;;3.20;99.90;;;;;;4995125;28;20045;-87
2022/01/07 05:39:47;;;;;;;12.90;6.82;;;3.20;99.90;;;;;;5028642;28;20038;-87
2022/01/07 05:42:13;;;;;;;13.05;6.88;;;3.20;99.90;;;;;;5027551;28;20068;-87
2022/01/07 05:44:39;;;;;;;12.88;6.63;;;3.20;99.90;;;;;;4987535;28;20048;-87
2022/01/07 05:47:05;;;;;;;13.32;6.95;;;3.20;99.90;;;;;;4992661;28;20042;-87
2022/01/07 05:49:30;;;;;;;12.80;7.25;;;3.20;99.90;;;;;;4992103;28;20715;-87
2022/01/07 05:51:56;;;;;;;15.48;7.72;;;3.20;99.90;;;;;;4976062;28;20042;-87
2022/01/07 05:54:22;;;;;;;12.57;6.35;;;3.20;99.90;;;;;;4976005;28;20099;-87
2022/01/07 05:56:48;;;;;;;11.63;6.60;;;3.20;99.90;;;;;;4992126;28;20532;-87
2022/01/07 05:59:13;;;;;;;11.63;7.07;;;3.20;99.90;;;;;;4976025;28;20042;-88
2022/01/07 06:01:39;;;;;;;14.55;6.57;;;3.30;99.90;;;;;;4992008;28;20046;-87
2022/01/07 06:04:04;;;;;;;11.18;6.60;;;3.30;99.90;;;;;;4975602;28;20124;-87
2022/01/07 06:06:30;;;;;;;13.05;6.75;;;3.30;99.90;;;;;;4975905;28;20200;-87
2022/01/07 06:08:56;;;;;;;11.57;6.50;;;3.30;99.90;;;;;;4991850;28;20038;-87
2022/01/07 06:11:21;;;;;;;11.45;6.57;;;3.30;99.90;;;;;;4975820;28;20046;-87
2022/01/07 06:13:47;;;;;;;14.18;7.50;;;3.30;99.90;;;;;;4974975;28;20121;-87
2022/01/07 06:16:12;;;;;;;12.30;6.55;;;3.30;99.90;;;;;;4987041;28;20419;-87
2022/01/07 06:18:54;;;;;;;12.35;6.55;;;3.30;99.90;;;;;;5011387;28;20120;-87
2022/01/07 06:21:20;;;;;;;11.93;6.07;;;3.30;99.90;;;;;;5027625;28;20592;-87
2022/01/07 06:23:46;;;;;;;13.23;6.22;;;3.40;99.90;;;;;;5027437;28;20050;-87
2022/01/07 06:26:12;;;;;;;12.27;6.75;;;3.30;99.90;;;;;;5021681;28;20072;-86
2022/01/07 06:28:37;;;;;;;11.85;6.70;;;3.40;99.90;;;;;;5010955;28;20046;-87
2022/01/07 06:31:03;;;;;;;11.70;6.47;;;3.40;99.90;;;;;;5011000;28;20042;-87
2022/01/07 06:33:28;;;;;;;11.55;6.25;;;3.40;99.90;;;;;;4994495;28;20042;-88
2022/01/07 06:35:54;;;;;;;11.38;6.20;;;3.40;99.90;;;;;;4994115;28;20038;-88
2022/01/07 06:38:20;;;;;;;12.23;5.95;;;3.40;99.90;;;;;;4994074;28;20044;-87
2022/01/07 06:40:45;;;;;;;12.95;6.20;;;3.40;99.90;;;;;;4994141;28;20034;-87
2022/01/07 06:43:11;;;;;;;12.18;7.07;;;3.40;99.90;;;;;;5009732;28;20435;-87
2022/01/07 06:45:36;;;;;;;12.48;6.00;;;3.40;99.90;;;;;;4994579;28;20080;-87
2022/01/07 06:48:02;;;;;;;12.23;6.60;;;3.50;99.90;;;;;;5010038;28;20476;-87
2022/01/07 06:50:28;;;;;;;11.35;6.40;;;3.50;99.90;;;;;;5010930;28;20050;-88
2022/01/07 06:52:53;;;;;;;11.18;6.10;;;3.50;99.90;;;;;;4994841;28;20129;-87
2022/01/07 06:55:19;;;;;;;10.82;5.70;;;3.50;99.90;;;;;;4994004;28;20049;-88
2022/01/07 06:57:45;;;;;;;10.88;6.07;;;3.50;99.90;;;;;;4997023;28;20044;-87
2022/01/07 07:00:11;;;;;;;11.70;6.47;;;3.50;99.90;;;;;;4974778;28;20030;-88
2022/01/07 07:02:36;;;;;;;11.25;5.93;;;3.50;99.90;;;;;;4974911;28;20042;-88
2022/01/07 07:05:02;;;;;;;12.80;6.45;;;3.50;99.90;;;;;;4989719;28;20039;-87
2022/01/07 07:07:27;;;;;;;13.85;6.55;;;3.50;99.90;;;;;;4991192;28;20113;-88
2022/01/07 07:09:53;;;;;;;12.23;7.20;;;3.50;99.90;;;;;;4991281;28;20042;-88
2022/01/07 07:12:18;;;;;;;12.30;7.72;;;3.50;99.90;;;;;;4974531;28;20121;-88
2022/01/07 07:14:44;;;;;;;10.55;6.65;;;3.50;99.90;;;;;;4990317;28;20453;-87
2022/01/07 07:17:12;;;;;;;14.05;7.22;;;3.50;99.90;;;;;;4974524;28;20073;-88
2022/01/07 07:19:38;;;;;;;11.80;6.97;;;3.50;99.90;;;;;;4990185;28;20046;-88
2022/01/07 07:22:04;;;;;;;15.02;7.53;;;3.50;99.90;;;;;;4990611;28;20364;-89
2022/01/07 07:24:30;;;;;;;13.13;8.30;;;3.50;99.90;;;;;;4990217;28;20053;-88
2022/01/07 07:26:56;;;;;;;11.70;7.40;;;3.50;99.90;;;;;;4973845;28;20046;-88
2022/01/07 07:29:21;;;;;;;13.60;7.63;;;3.50;99.90;;;;;;4990736;28;20124;-88
2022/01/07 07:31:50;;;;;;;18.17;10.48;;;3.50;99.90;;;;;;5010527;28;20184;-88
2022/01/07 07:36:44;;;;;;;13.15;8.02;;;3.60;99.90;;;;;;5026424;28;20053;-89
2022/01/07 07:39:11;;;;;;;15.05;8.50;;;3.60;99.90;;;;;;4996965;28;20042;-88
2022/01/07 07:41:38;;;;;;;12.77;8.18;;;3.60;99.90;;;;;;4990840;28;20076;-88
2022/01/07 07:44:05;;;;;;;16.45;9.90;;;3.60;99.90;;;;;;4990739;28;20130;-88
2022/01/07 07:46:32;;;;;;;15.38;9.35;;;3.60;99.90;;;;;;4974219;28;20057;-88
2022/01/07 07:49:00;;;;;;;14.60;9.23;;;3.70;99.90;;;;;;4974322;28;20038;-89
2022/01/07 07:51:27;;;;;;;14.52;9.73;;;3.70;99.90;;;;;;4989837;28;20064;-89
2022/01/07 07:53:53;;;;;;;17.00;10.60;;;3.70;99.90;;;;;;5005844;28;20436;-88
2022/01/07 07:56:19;;;;;;;18.73;9.98;;;3.70;99.90;;;;;;5006288;28;20042;-88
2022/01/07 07:58:44;;;;;;;16.95;11.27;;;3.70;99.90;;;;;;4978316;28;20064;-89
2022/01/07 08:01:12;;;;;;;16.67;10.77;;;3.70;99.90;;;;;;5010101;28;20052;-88
2022/01/07 08:03:38;;;;;;;19.25;10.95;;;3.80;99.90;;;;;;5009678;28;20042;-88
2022/01/07 08:06:04;;;;;;;17.00;10.90;;;3.80;99.90;;;;;;5010018;28;20442;-88
2022/01/07 08:08:31;;;;;;;21.63;11.35;;;3.80;99.90;;;;;;4993511;28;20050;-88
2022/01/07 08:11:00;;;;;;;20.92;12.13;;;3.80;99.90;;;;;;5000079;28;20078;-88
2022/01/07 08:13:30;;;;;;;21.88;12.30;;;3.90;99.90;;;;;;4990007;28;20045;-88
2022/01/07 08:16:03;;;;;;;18.85;12.45;;;3.90;99.90;;;;;;4990429;28;20158;-88
2022/01/07 08:18:37;;;;;;;16.75;12.65;;;3.90;99.90;;;;;;4992960;28;20073;-88
2022/01/07 08:21:06;;;;;;;18.00;12.95;;;3.90;99.90;;;;;;5008941;28;20103;-88
2022/01/07 08:23:33;;;;;;;19.38;13.05;;;4.00;99.90;;;;;;4997250;28;20133;-87
2022/01/07 08:26:00;;;;;;;18.58;13.57;;;4.00;99.90;;;;;;5013181;28;20045;-88
2022/01/07 08:28:31;;;;;;;20.60;13.70;;;4.00;99.90;;;;;;4997019;28;20041;-88
2022/01/07 08:36:22;;;;;;;18.63;13.30;;;4.10;99.90;;;;;;4993696;28;20049;-88
2022/01/07 08:38:49;;;;;;;22.83;15.32;;;4.20;99.90;;;;;;4993576;28;20044;-89
2022/01/07 08:41:16;;;;;;;23.10;15.25;;;4.20;99.90;;;;;;4997025;28;20085;-88
2022/01/07 08:43:42;;;;;;;22.05;14.25;;;4.20;99.90;;;;;;4992936;28;20045;-88
2022/01/07 08:46:08;;;;;;;23.58;14.68;;;4.30;99.90;;;;;;4996547;28;20041;-88
2022/01/07 08:48:35;;;;;;;21.52;15.23;;;4.30;99.90;;;;;;4996643;28;20056;-88
2022/01/07 08:51:02;;;;;;;23.58;16.17;;;4.30;99.90;;;;;;5007841;28;20038;-87
2022/01/07 08:53:28;;;;;;;28.48;15.50;;;4.40;99.90;;;;;;4996115;28;20037;-87
2022/01/07 08:55:54;;;;;;;22.42;14.10;;;4.40;99.90;;;;;;4995004;28;20487;-88
2022/01/07 08:58:20;;;;;;;21.80;14.93;;;4.40;99.90;;;;;;4994986;28;20042;-88
2022/01/07 09:00:46;;;;;;;21.08;13.90;;;4.50;99.90;;;;;;4994823;28;20256;-88
2022/01/07 09:03:11;;;;;;;25.60;14.98;;;4.50;99.90;;;;;;5012384;28;20046;-88
2022/01/07 09:05:37;;;;;;;23.17;14.52;;;4.60;99.90;;;;;;4996384;28;20038;-88
2022/01/07 09:08:02;;;;;;;28.05;15.18;;;4.60;99.90;;;;;;5012609;28;20135;-88
2022/01/07 09:10:29;;;;;;;20.25;13.82;;;4.70;99.90;;;;;;4999686;28;20047;-88
2022/01/07 09:12:54;;;;;;;24.80;16.05;;;4.70;99.90;;;;;;4993706;28;20404;-88
2022/01/07 09:15:20;;;;;;;21.23;14.85;;;4.70;99.90;;;;;;4992865;28;20034;-88
2022/01/07 09:17:46;;;;;;;23.35;16.52;;;4.80;99.90;;;;;;4992983;28;20065;-87
2022/01/07 09:20:12;;;;;;;27.70;17.27;;;4.80;99.90;;;;;;4976913;28;20117;-88
2022/01/07 09:22:38;;;;;;;25.00;15.48;;;4.90;99.90;;;;;;4976707;28;20454;-87
2022/01/07 09:25:05;;;;;;;21.85;15.43;;;4.90;99.90;;;;;;4976569;28;20484;-87
2022/01/07 09:27:32;;;;;;;25.10;15.65;;;5.00;99.90;;;;;;4975845;28;20046;-88
2022/01/07 09:29:57;;;;;;;25.52;18.35;;;5.00;99.90;;;;;;4979945;28;20038;-87
2022/01/07 09:32:23;;;;;;;29.45;18.60;;;5.10;99.90;;;;;;5012526;28;20038;-88
2022/01/07 09:34:49;;;;;;;23.50;17.10;;;5.10;99.90;;;;;;5011993;28;20033;-87
2022/01/07 09:37:14;;;;;;;25.67;17.02;;;5.20;99.90;;;;;;5012549;28;20065;-88
2022/01/07 09:39:40;;;;;;;21.25;15.02;;;5.20;99.90;;;;;;5012071;28;20073;-87
2022/01/07 09:42:07;;;;;;;23.42;17.38;;;5.20;99.90;;;;;;4994513;28;20046;-87
2022/01/07 09:44:40;;;;;;;25.38;16.17;;;5.30;99.90;;;;;;4992352;28;20092;-88
2022/01/07 09:47:07;;;;;;;22.70;14.98;;;5.30;99.90;;;;;;4992129;28;20241;-88
2022/01/07 09:49:34;;;;;;;23.88;16.02;;;5.40;99.90;;;;;;4992043;28;20038;-88
2022/01/07 09:52:04;;;;;;;23.35;16.10;;;5.40;99.90;;;;;;4989299;28;20078;-88
2022/01/07 09:54:32;;;;;;;26.48;17.13;;;5.50;99.90;;;;;;5011719;28;20041;-88
2022/01/07 09:56:57;;;;;;;26.63;17.38;;;5.50;99.90;;;;;;5011398;28;20125;-88
2022/01/07 09:59:23;;;;;;;24.00;14.98;;;5.60;99.90;;;;;;5011586;28;20128;-88
2022/01/07 10:01:58;;;;;;;23.90;16.52;;;5.50;99.90;;;;;;5011517;28;20121;-87
2022/01/07 10:04:36;;;;;;;20.77;14.00;;;5.50;99.90;;;;;;4994955;28;20053;-88
2022/01/07 10:07:12;;;;;;;24.65;15.98;;;5.40;99.90;;;;;;4995360;28;20041;-88
2022/01/07 10:09:39;;;;;;;21.40;15.05;;;5.40;99.90;;;;;;5012189;28;20062;-88
2022/01/07 10:12:07;;;;;;;21.73;15.88;;;5.40;99.90;;;;;;5011673;28;20052;-88
2022/01/07 10:14:34;;;;;;;22.65;16.23;;;5.40;99.90;;;;;;5012091;28;20099;-88
2022/01/07 10:17:01;;;;;;;20.42;14.50;;;5.40;99.90;;;;;;5011955;28;20510;-87
2022/01/07 10:19:29;;;;;;;23.17;13.77;;;5.40;99.90;;;;;;4994960;28;20125;-88
2022/01/07 10:22:00;;;;;;;26.02;15.05;;;5.40;99.90;;;;;;4976732;28;20526;-87
2022/01/07 10:24:26;;;;;;;24.10;15.73;;;5.40;99.90;;;;;;4991992;28;20054;-87
2022/01/07 10:27:08;;;;;;;21.33;14.25;;;5.40;99.90;;;;;;4976552;28;20034;-88
2022/01/07 10:29:41;;;;;;;15.95;9.63;;;5.30;99.90;;;;;;5003373;28;20033;-88
2022/01/07 10:32:27;;;;;;;12.88;7.68;;;5.30;99.90;;;;;;4993921;28;20132;-88
2022/01/07 10:35:05;;;;;;;12.80;5.00;;;5.20;99.90;;;;;;4994439;28;20092;-88
2022/01/07 10:37:31;;;;;;;7.80;3.42;;;5.00;99.90;;;;;;4994447;28;20034;-87
2022/01/07 10:39:57;;;;;;;6.65;2.15;;;4.90;99.90;;;;;;5009855;28;20455;-87
2022/01/07 10:42:24;;;;;;;7.38;2.83;;;4.80;99.90;;;;;;4990760;28;20046;-87
2022/01/07 10:45:04;;;;;;;7.00;2.58;;;4.80;99.90;;;;;;4989594;28;20038;-87
2022/01/07 10:47:30;;;;;;;7.10;2.50;;;4.80;99.90;;;;;;4990742;28;20132;-87
2022/01/07 10:50:16;;;;;;;7.50;3.13;;;4.80;99.90;;;;;;4968926;28;20129;-87
2022/01/07 10:52:42;;;;;;;7.45;3.55;;;4.90;99.90;;;;;;4991040;28;20129;-86
2022/01/07 10:55:21;;;;;;;8.13;3.67;;;4.90;99.90;;;;;;4990653;28;20045;-87
2022/01/07 10:57:50;;;;;;;10.20;4.55;;;5.00;99.90;;;;;;4991316;28;20059;-87
2022/01/07 11:00:18;;;;;;;11.30;4.90;;;5.00;99.90;;;;;;4991250;28;20034;-87
2022/01/07 11:02:44;;;;;;;10.77;6.05;;;5.00;99.90;;;;;;4976955;28;20044;-87
2022/01/07 11:05:10;;;;;;;14.95;7.05;;;5.00;99.90;;;;;;4974566;28;20038;-87
2022/01/07 11:07:36;;;;;;;14.25;7.15;;;5.00;99.90;;;;;;4975544;28;20148;-87
2022/01/07 11:10:07;;;;;;;12.55;8.02;;;5.00;99.90;;;;;;5007025;28;20092;-88
2022/01/07 11:12:34;;;;;;;14.45;9.23;;;5.10;99.90;;;;;;4983055;28;20034;-88
2022/01/07 11:15:00;;;;;;;16.88;10.02;;;5.10;99.90;;;;;;4974762;28;20042;-88
2022/01/07 11:17:27;;;;;;;24.80;10.95;;;5.10;99.90;;;;;;4983107;28;20159;-88
2022/01/07 11:19:59;;;;;;;20.48;13.00;;;5.20;99.90;;;;;;5009991;28;20069;-88
2022/01/07 11:22:26;;;;;;;25.15;15.27;;;5.20;99.90;;;;;;5018611;28;20033;-88
2022/01/07 11:25:04;;;;;;;28.00;17.10;;;5.30;99.90;;;;;;4993139;28;20117;-88
2022/01/07 11:27:30;;;;;;;23.65;17.27;;;5.40;99.90;;;;;;5009754;28;20050;-88
2022/01/07 11:29:59;;;;;;;26.42;16.83;;;5.60;99.90;;;;;;5010548;28;20169;-88
2022/01/07 11:32:25;;;;;;;22.17;15.30;;;5.80;99.90;;;;;;4988132;28;20070;-88
2022/01/07 11:34:54;;;;;;;27.05;14.88;;;6.00;99.90;;;;;;4990624;28;20089;-88
2022/01/07 11:37:37;;;;;;;24.58;14.85;;;6.00;99.90;;;;;;4974114;28;20045;-87
2022/01/07 11:40:07;;;;;;;22.77;12.70;;;6.00;99.90;;;;;;5007031;28;20407;-88
2022/01/07 11:42:41;;;;;;;19.73;11.95;;;6.00;99.90;;;;;;5006501;28;20097;-87
2022/01/07 11:45:34;;;;;;;16.70;11.32;;;6.00;99.90;;;;;;4974495;28;20042;-88
2022/01/07 11:48:11;;;;;;;;;;;6.00;99.90;;;;;;4974645;28;20046;-88
2022/01/07 11:50:53;;;;;;;20.00;11.25;;;5.90;99.90;;;;;;4989182;28;19921;-89
2022/01/07 11:53:19;;;;;;;16.42;9.38;;;5.90;99.90;;;;;;5008502;28;20033;-88
2022/01/07 11:55:44;;;;;;;11.73;6.10;;;5.80;99.90;;;;;;5009960;28;20407;-88
2022/01/07 11:58:12;;;;;;;7.90;3.33;;;5.80;99.90;;;;;;4993299;28;20084;-88
2022/01/07 12:00:50;;;;;;;7.80;2.50;;;5.70;99.90;;;;;;4993675;28;20116;-88
2022/01/07 12:03:35;;;;;;;5.82;1.33;;;5.40;99.90;;;;;;5007775;28;20045;-88
2022/01/07 12:06:23;;;;;;;6.03;1.42;;;5.20;99.90;;;;;;5010182;28;20557;-88
2022/01/07 12:09:05;;;;;;;9.13;1.85;;;5.20;99.90;;;;;;5026138;28;20164;-88
2022/01/07 12:11:40;;;;;;;4.93;1.25;;;5.10;99.90;;;;;;4992392;28;20431;-88
2022/01/07 12:14:11;;;;;;;7.25;1.77;;;5.00;99.90;;;;;;4973501;28;20447;-88
2022/01/07 12:16:38;;;;;;;9.25;1.30;;;4.90;99.90;;;;;;4990060;28;20096;-88
2022/01/07 12:19:23;;;;;;;7.03;1.20;;;4.80;99.90;;;;;;4989842;28;20547;-88
2022/01/07 12:21:51;;;;;;;8.15;1.70;;;4.80;99.90;;;;;;4990676;28;20046;-89
2022/01/07 12:24:21;;;;;;;6.60;1.25;;;4.60;99.90;;;;;;5009463;28;20068;-89
2022/01/07 12:26:46;;;;;;;10.38;1.10;;;4.60;99.90;;;;;;5009496;28;20781;-89
2022/01/07 12:29:20;;;;;;;5.05;1.00;;;4.50;99.90;;;;;;4994445;28;20077;-89
2022/01/07 12:31:53;;;;;;;6.85;1.10;;;4.50;99.90;;;;;;5010272;28;20065;-89
2022/01/07 12:34:30;;;;;;;9.70;1.30;;;4.50;99.90;;;;;;4981129;28;20030;-89
2022/01/07 12:36:58;;;;;;;5.80;1.08;;;4.40;99.90;;;;;;5006107;28;20030;-89
2022/01/07 12:39:26;;;;;;;7.38;1.25;;;4.40;99.90;;;;;;5009932;28;20515;-89
2022/01/07 12:41:53;;;;;;;7.40;1.27;;;4.40;99.90;;;;;;4991953;28;20085;-88
2022/01/07 12:44:19;;;;;;;6.47;1.08;;;4.40;99.90;;;;;;5007537;28;20045;-88
2022/01/07 12:46:50;;;;;;;6.63;1.23;;;4.30;99.90;;;;;;4991603;28;20046;-89
2022/01/07 12:49:16;;;;;;;5.78;1.15;;;4.30;99.90;;;;;;4991868;28;20042;-89
2022/01/07 12:51:42;;;;;;;5.35;1.10;;;4.30;99.90;;;;;;5009148;28;20064;-89
2022/01/07 12:54:08;;;;;;;8.43;1.58;;;4.20;99.90;;;;;;5015844;28;20117;-89